Current Conditions
Clear
Conditions



Pressure
1009.92 (mb) - 29.82 (inHG)
Visibility

6.2 (miles) - 10.0 (km)
Temperature
17  °C
Temperature
14  °C
Dewpoint
83  %
 Humidity
Wind Speed
8  mph
7  kts
13  km/h
3.6  m/s
Wind Direction
N
45°
E
90°
135°
S
180°
225°
W
270°
315°
 240°

West South
West
Airport Data
EGGD
Bristol Airport
Metar :EGGD 162020Z AUTO 24007KT 9999 NCD 17/14 Q1010
Wed 16th June 21:20 pm
Raw Metar Info
Raw METAR is the most common format in the world for the transmission of observational weather data. It is highly standardized through the International Civil Aviation Organization (ICAO), which allows it to be understood throughout most of the world.
API Info
Data Provided by
https://www.checkwx.com/weather/EGGD

Aviation Weather providing METAR, TAF, AIRMET, SIGMET and OUTLOOK Weather Reports
© Info
CSS/SVG/PHP scripts were developed by weather34.com for use in the weather34 template © 2015-2021

Guide Info provided by Metar-Wikipedia